sensor_id;sensor_type;location;lat;lon;timestamp;pressure;altitude;pressure_sealevel;temperature;humidity
47811;BME280;33575;52.600;7.318;2022-10-17T00:02:12;101570.45;;;14.65;92.96
47811;BME280;33575;52.600;7.318;2022-10-17T00:04:43;101574.56;;;14.64;92.94
47811;BME280;33575;52.600;7.318;2022-10-17T00:07:13;101577.68;;;14.61;92.93
47811;BME280;33575;52.600;7.318;2022-10-17T00:09:43;101581.72;;;14.62;92.73
47811;BME280;33575;52.600;7.318;2022-10-17T00:12:14;101584.82;;;14.63;92.73
47811;BME280;33575;52.600;7.318;2022-10-17T00:14:44;101588.06;;;14.61;92.61
47811;BME280;33575;52.600;7.318;2022-10-17T00:17:14;101586.90;;;14.59;92.56
47811;BME280;33575;52.600;7.318;2022-10-17T00:19:45;101588.35;;;14.58;92.47
47811;BME280;33575;52.600;7.318;2022-10-17T00:22:15;101590.42;;;14.58;92.36
47811;BME280;33575;52.600;7.318;2022-10-17T00:24:46;101583.23;;;14.56;92.18
47811;BME280;33575;52.600;7.318;2022-10-17T00:27:16;101585.82;;;14.54;92.19
47811;BME280;33575;52.600;7.318;2022-10-17T00:29:47;101588.76;;;14.52;92.19
47811;BME280;33575;52.600;7.318;2022-10-17T00:32:17;101586.86;;;14.49;92.17
47811;BME280;33575;52.600;7.318;2022-10-17T00:34:47;101586.77;;;14.47;92.15
47811;BME280;33575;52.600;7.318;2022-10-17T00:37:18;101590.89;;;14.45;92.24
47811;BME280;33575;52.600;7.318;2022-10-17T00:39:49;101590.21;;;14.44;92.24
47811;BME280;33575;52.600;7.318;2022-10-17T00:42:19;101586.52;;;14.43;92.38
47811;BME280;33575;52.600;7.318;2022-10-17T00:44:58;101582.82;;;14.42;92.38
47811;BME280;33575;52.600;7.318;2022-10-17T00:47:20;101583.09;;;14.43;92.53
47811;BME280;33575;52.600;7.318;2022-10-17T00:49:50;101582.80;;;14.42;92.61
47811;BME280;33575;52.600;7.318;2022-10-17T00:52:23;101578.81;;;14.41;92.65
47811;BME280;33575;52.600;7.318;2022-10-17T00:54:55;101579.72;;;14.39;92.61
47811;BME280;33575;52.600;7.318;2022-10-17T00:57:21;101582.01;;;14.40;92.58
47811;BME280;33575;52.600;7.318;2022-10-17T00:59:55;101581.51;;;14.39;92.58
47811;BME280;33575;52.600;7.318;2022-10-17T01:02:22;101578.21;;;14.37;92.55
47811;BME280;33575;52.600;7.318;2022-10-17T01:04:53;101570.89;;;14.37;92.52
47811;BME280;33575;52.600;7.318;2022-10-17T01:07:23;101568.64;;;14.35;92.51
47811;BME280;33575;52.600;7.318;2022-10-17T01:09:53;101570.55;;;14.34;92.58
47811;BME280;33575;52.600;7.318;2022-10-17T01:12:27;101560.67;;;14.33;92.61
47811;BME280;33575;52.600;7.318;2022-10-17T01:15:04;101557.15;;;14.32;92.62
47811;BME280;33575;52.600;7.318;2022-10-17T01:17:28;101551.58;;;14.29;92.97
47811;BME280;33575;52.600;7.318;2022-10-17T01:22:29;101542.21;;;14.24;93.41
47811;BME280;33575;52.600;7.318;2022-10-17T01:27:37;101540.32;;;14.21;93.99
47811;BME280;33575;52.600;7.318;2022-10-17T01:30:08;101540.91;;;14.19;94.16
47811;BME280;33575;52.600;7.318;2022-10-17T01:32:30;101542.84;;;14.21;93.99
47811;BME280;33575;52.600;7.318;2022-10-17T01:35:01;101541.78;;;14.21;94.01
47811;BME280;33575;52.600;7.318;2022-10-17T01:37:32;101536.78;;;14.22;94.00
47811;BME280;33575;52.600;7.318;2022-10-17T01:40:03;101538.03;;;14.24;93.86
47811;BME280;33575;52.600;7.318;2022-10-17T01:42:33;101536.22;;;14.25;94.17
47811;BME280;33575;52.600;7.318;2022-10-17T01:45:03;101530.74;;;14.26;94.28
47811;BME280;33575;52.600;7.318;2022-10-17T01:47:32;101525.03;;;14.27;94.45
47811;BME280;33575;52.600;7.318;2022-10-17T01:50:03;101522.46;;;14.29;94.43
47811;BME280;33575;52.600;7.318;2022-10-17T01:52:33;101518.55;;;14.30;94.41
47811;BME280;33575;52.600;7.318;2022-10-17T01:55:05;101513.30;;;14.31;94.34
47811;BME280;33575;52.600;7.318;2022-10-17T01:57:34;101515.86;;;14.32;94.22
47811;BME280;33575;52.600;7.318;2022-10-17T02:00:04;101515.93;;;14.32;94.25
47811;BME280;33575;52.600;7.318;2022-10-17T02:02:32;101511.80;;;14.33;94.21
47811;BME280;33575;52.600;7.318;2022-10-17T02:05:03;101508.88;;;14.34;94.25
47811;BME280;33575;52.600;7.318;2022-10-17T02:07:32;101508.45;;;14.35;94.15
47811;BME280;33575;52.600;7.318;2022-10-17T02:10:08;101509.43;;;14.35;94.14
47811;BME280;33575;52.600;7.318;2022-10-17T02:12:40;101511.83;;;14.35;94.07
47811;BME280;33575;52.600;7.318;2022-10-17T02:15:15;101516.32;;;14.35;93.94
47811;BME280;33575;52.600;7.318;2022-10-17T02:17:42;101515.65;;;14.35;93.76
47811;BME280;33575;52.600;7.318;2022-10-17T02:20:09;101510.95;;;14.36;93.67
47811;BME280;33575;52.600;7.318;2022-10-17T02:22:40;101505.45;;;14.34;93.55
47811;BME280;33575;52.600;7.318;2022-10-17T02:25:11;101500.06;;;14.32;93.46
47811;BME280;33575;52.600;7.318;2022-10-17T02:27:42;101499.74;;;14.31;93.37
47811;BME280;33575;52.600;7.318;2022-10-17T02:30:09;101496.08;;;14.29;93.26
47811;BME280;33575;52.600;7.318;2022-10-17T02:32:41;101495.47;;;14.28;93.14
47811;BME280;33575;52.600;7.318;2022-10-17T02:35:10;101494.88;;;14.26;93.19
47811;BME280;33575;52.600;7.318;2022-10-17T02:37:40;101495.74;;;14.25;93.14
47811;BME280;33575;52.600;7.318;2022-10-17T02:40:10;101493.77;;;14.22;93.17
47811;BME280;33575;52.600;7.318;2022-10-17T02:42:39;101490.50;;;14.21;93.29
47811;BME280;33575;52.600;7.318;2022-10-17T02:45:09;101492.80;;;14.19;93.33
47811;BME280;33575;52.600;7.318;2022-10-17T02:47:47;101498.43;;;14.16;93.48
47811;BME280;33575;52.600;7.318;2022-10-17T02:50:10;101493.95;;;14.13;93.49
47811;BME280;33575;52.600;7.318;2022-10-17T02:52:44;101495.27;;;14.13;93.58
47811;BME280;33575;52.600;7.318;2022-10-17T02:55:15;101487.42;;;14.13;93.62
47811;BME280;33575;52.600;7.318;2022-10-17T02:57:43;101482.05;;;14.12;93.64
47811;BME280;33575;52.600;7.318;2022-10-17T03:00:13;101476.08;;;14.08;93.73
47811;BME280;33575;52.600;7.318;2022-10-17T03:02:44;101474.95;;;14.07;93.74
47811;BME280;33575;52.600;7.318;2022-10-17T03:05:14;101472.44;;;14.07;93.75
47811;BME280;33575;52.600;7.318;2022-10-17T03:07:42;101471.07;;;14.06;93.81
47811;BME280;33575;52.600;7.318;2022-10-17T03:10:12;101468.10;;;14.05;93.79
47811;BME280;33575;52.600;7.318;2022-10-17T03:12:42;101469.89;;;14.03;93.87
47811;BME280;33575;52.600;7.318;2022-10-17T03:15:13;101465.19;;;14.00;94.00
47811;BME280;33575;52.600;7.318;2022-10-17T03:17:43;101465.80;;;14.00;94.13
47811;BME280;33575;52.600;7.318;2022-10-17T03:20:13;101466.09;;;14.01;93.99
47811;BME280;33575;52.600;7.318;2022-10-17T03:22:43;101471.03;;;14.03;94.03
47811;BME280;33575;52.600;7.318;2022-10-17T03:25:14;101470.00;;;14.02;94.01
47811;BME280;33575;52.600;7.318;2022-10-17T03:27:44;101475.79;;;14.03;93.99
47811;BME280;33575;52.600;7.318;2022-10-17T03:30:14;101473.39;;;14.03;94.03
47811;BME280;33575;52.600;7.318;2022-10-17T03:32:45;101471.67;;;14.03;93.95
47811;BME280;33575;52.600;7.318;2022-10-17T03:35:16;101474.84;;;14.02;93.97
47811;BME280;33575;52.600;7.318;2022-10-17T03:37:45;101477.47;;;14.02;93.88
47811;BME280;33575;52.600;7.318;2022-10-17T03:40:16;101481.52;;;14.02;94.04
47811;BME280;33575;52.600;7.318;2022-10-17T03:42:46;101480.55;;;14.03;93.94
47811;BME280;33575;52.600;7.318;2022-10-17T03:45:16;101472.81;;;14.03;93.98
47811;BME280;33575;52.600;7.318;2022-10-17T03:47:46;101474.61;;;14.00;94.25
47811;BME280;33575;52.600;7.318;2022-10-17T03:50:17;101477.24;;;13.99;94.35
47811;BME280;33575;52.600;7.318;2022-10-17T03:52:48;101478.02;;;14.00;94.35
47811;BME280;33575;52.600;7.318;2022-10-17T03:55:18;101478.73;;;13.98;94.49
47811;BME280;33575;52.600;7.318;2022-10-17T03:57:49;101478.12;;;13.97;94.98
47811;BME280;33575;52.600;7.318;2022-10-17T04:00:19;101477.49;;;13.99;94.94
47811;BME280;33575;52.600;7.318;2022-10-17T04:02:50;101478.43;;;14.01;94.93
47811;BME280;33575;52.600;7.318;2022-10-17T04:05:20;101475.69;;;14.03;94.99
47811;BME280;33575;52.600;7.318;2022-10-17T04:07:51;101475.07;;;14.05;94.95
47811;BME280;33575;52.600;7.318;2022-10-17T04:10:21;101481.53;;;14.08;95.09
47811;BME280;33575;52.600;7.318;2022-10-17T04:12:52;101478.58;;;14.09;95.18
47811;BME280;33575;52.600;7.318;2022-10-17T04:15:22;101481.35;;;14.11;95.36
47811;BME280;33575;52.600;7.318;2022-10-17T04:17:52;101482.48;;;14.11;95.53
47811;BME280;33575;52.600;7.318;2022-10-17T04:20:23;101479.79;;;14.13;95.61
47811;BME280;33575;52.600;7.318;2022-10-17T04:22:53;101480.41;;;14.15;95.82
47811;BME280;33575;52.600;7.318;2022-10-17T04:25:23;101481.53;;;14.16;95.85
47811;BME280;33575;52.600;7.318;2022-10-17T04:27:54;101485.45;;;14.17;95.87
47811;BME280;33575;52.600;7.318;2022-10-17T04:30:24;101476.15;;;14.19;96.00
47811;BME280;33575;52.600;7.318;2022-10-17T04:32:54;101474.06;;;14.20;95.94
47811;BME280;33575;52.600;7.318;2022-10-17T04:35:24;101473.19;;;14.24;95.89
47811;BME280;33575;52.600;7.318;2022-10-17T04:37:55;101471.95;;;14.27;95.77
47811;BME280;33575;52.600;7.318;2022-10-17T04:40:25;101474.77;;;14.30;95.57
47811;BME280;33575;52.600;7.318;2022-10-17T04:42:55;101472.42;;;14.31;95.56
47811;BME280;33575;52.600;7.318;2022-10-17T04:45:26;101467.32;;;14.32;95.93
47811;BME280;33575;52.600;7.318;2022-10-17T04:47:56;101462.05;;;14.33;95.70
47811;BME280;33575;52.600;7.318;2022-10-17T04:50:26;101459.45;;;14.36;95.72
47811;BME280;33575;52.600;7.318;2022-10-17T04:52:57;101458.93;;;14.34;96.33
47811;BME280;33575;52.600;7.318;2022-10-17T04:55:27;101460.59;;;14.35;96.00
47811;BME280;33575;52.600;7.318;2022-10-17T04:57:57;101456.59;;;14.33;96.81
47811;BME280;33575;52.600;7.318;2022-10-17T05:00:27;101453.45;;;14.34;97.08
47811;BME280;33575;52.600;7.318;2022-10-17T05:02:57;101447.77;;;14.36;96.64
47811;BME280;33575;52.600;7.318;2022-10-17T05:05:28;101440.19;;;14.38;96.61
47811;BME280;33575;52.600;7.318;2022-10-17T05:07:58;101439.21;;;14.40;96.40
47811;BME280;33575;52.600;7.318;2022-10-17T05:10:28;101433.96;;;14.39;96.69
47811;BME280;33575;52.600;7.318;2022-10-17T05:12:59;101439.21;;;14.43;96.86
47811;BME280;33575;52.600;7.318;2022-10-17T05:15:29;101433.80;;;14.41;97.01
47811;BME280;33575;52.600;7.318;2022-10-17T05:17:59;101434.67;;;14.43;96.78
47811;BME280;33575;52.600;7.318;2022-10-17T05:20:30;101424.09;;;14.44;96.90
47811;BME280;33575;52.600;7.318;2022-10-17T05:23:00;101426.91;;;14.45;97.47
47811;BME280;33575;52.600;7.318;2022-10-17T05:25:30;101435.21;;;14.45;97.47
47811;BME280;33575;52.600;7.318;2022-10-17T05:28:00;101437.26;;;14.45;97.35
47811;BME280;33575;52.600;7.318;2022-10-17T05:30:35;101441.83;;;14.49;97.36
47811;BME280;33575;52.600;7.318;2022-10-17T05:33:01;101442.53;;;14.51;97.70
47811;BME280;33575;52.600;7.318;2022-10-17T05:35:31;101442.37;;;14.54;97.75
47811;BME280;33575;52.600;7.318;2022-10-17T05:38:02;101440.77;;;14.55;97.72
47811;BME280;33575;52.600;7.318;2022-10-17T05:40:32;101443.54;;;14.58;97.87
47811;BME280;33575;52.600;7.318;2022-10-17T05:43:02;101450.39;;;14.59;97.98
47811;BME280;33575;52.600;7.318;2022-10-17T05:45:32;101452.05;;;14.61;97.89
47811;BME280;33575;52.600;7.318;2022-10-17T05:48:03;101458.31;;;14.63;97.81
47811;BME280;33575;52.600;7.318;2022-10-17T05:50:33;101462.33;;;14.64;98.04
47811;BME280;33575;52.600;7.318;2022-10-17T05:53:04;101458.72;;;14.66;98.26
47811;BME280;33575;52.600;7.318;2022-10-17T05:55:34;101457.62;;;14.69;98.06
47811;BME280;33575;52.600;7.318;2022-10-17T05:58:04;101459.42;;;14.70;98.14
47811;BME280;33575;52.600;7.318;2022-10-17T06:00:34;101472.40;;;14.73;98.10
47811;BME280;33575;52.600;7.318;2022-10-17T06:03:05;101479.12;;;14.79;97.99
47811;BME280;33575;52.600;7.318;2022-10-17T06:05:35;101473.22;;;14.83;98.03
47811;BME280;33575;52.600;7.318;2022-10-17T06:08:05;101477.15;;;14.86;97.98
47811;BME280;33575;52.600;7.318;2022-10-17T06:10:35;101484.88;;;14.89;98.02
47811;BME280;33575;52.600;7.318;2022-10-17T06:13:05;101486.25;;;14.87;98.46
47811;BME280;33575;52.600;7.318;2022-10-17T06:15:36;101486.35;;;14.90;98.30
47811;BME280;33575;52.600;7.318;2022-10-17T06:18:06;101484.69;;;14.90;98.53
47811;BME280;33575;52.600;7.318;2022-10-17T06:20:36;101489.19;;;14.92;98.91
47811;BME280;33575;52.600;7.318;2022-10-17T06:23:06;101496.89;;;14.92;98.84
47811;BME280;33575;52.600;7.318;2022-10-17T06:25:36;101502.92;;;14.94;99.31
47811;BME280;33575;52.600;7.318;2022-10-17T06:28:07;101504.83;;;14.98;99.02
47811;BME280;33575;52.600;7.318;2022-10-17T06:30:37;101501.19;;;14.99;99.76
47811;BME280;33575;52.600;7.318;2022-10-17T06:33:08;101499.97;;;15.05;99.18
47811;BME280;33575;52.600;7.318;2022-10-17T06:35:38;101507.16;;;15.09;99.09
47811;BME280;33575;52.600;7.318;2022-10-17T06:38:08;101519.40;;;15.15;98.89
47811;BME280;33575;52.600;7.318;2022-10-17T06:40:39;101523.82;;;15.17;99.29
47811;BME280;33575;52.600;7.318;2022-10-17T06:43:09;101526.48;;;15.24;98.94
47811;BME280;33575;52.600;7.318;2022-10-17T06:45:40;101527.30;;;15.29;98.79
47811;BME280;33575;52.600;7.318;2022-10-17T06:48:10;101528.32;;;15.33;98.80
47811;BME280;33575;52.600;7.318;2022-10-17T06:50:40;101532.91;;;15.35;99.04
47811;BME280;33575;52.600;7.318;2022-10-17T06:53:10;101538.01;;;15.37;98.85
47811;BME280;33575;52.600;7.318;2022-10-17T06:55:41;101542.77;;;15.40;98.79
47811;BME280;33575;52.600;7.318;2022-10-17T06:58:11;101535.39;;;15.40;99.32
47811;BME280;33575;52.600;7.318;2022-10-17T07:00:41;101536.83;;;15.45;98.91
47811;BME280;33575;52.600;7.318;2022-10-17T07:03:11;101535.89;;;15.46;99.19
47811;BME280;33575;52.600;7.318;2022-10-17T07:05:41;101530.65;;;15.50;99.09
47811;BME280;33575;52.600;7.318;2022-10-17T07:08:11;101539.80;;;15.46;99.69
47811;BME280;33575;52.600;7.318;2022-10-17T07:10:42;101540.74;;;15.50;99.34
47811;BME280;33575;52.600;7.318;2022-10-17T07:13:12;101535.43;;;15.53;99.19
47811;BME280;33575;52.600;7.318;2022-10-17T07:15:42;101539.43;;;15.55;99.35
47811;BME280;33575;52.600;7.318;2022-10-17T07:18:12;101545.30;;;15.58;99.36
47811;BME280;33575;52.600;7.318;2022-10-17T07:20:42;101555.72;;;15.61;99.52
47811;BME280;33575;52.600;7.318;2022-10-17T07:23:13;101549.45;;;15.65;99.30
47811;BME280;33575;52.600;7.318;2022-10-17T07:25:43;101545.51;;;15.69;99.31
47811;BME280;33575;52.600;7.318;2022-10-17T07:28:14;101548.66;;;15.71;99.27
47811;BME280;33575;52.600;7.318;2022-10-17T07:30:44;101549.44;;;15.73;99.57
47811;BME280;33575;52.600;7.318;2022-10-17T07:33:14;101550.37;;;15.75;99.64
47811;BME280;33575;52.600;7.318;2022-10-17T07:35:44;101543.68;;;15.75;100.00
47811;BME280;33575;52.600;7.318;2022-10-17T07:38:15;101540.11;;;15.75;100.00
47811;BME280;33575;52.600;7.318;2022-10-17T07:40:45;101554.15;;;15.80;100.00
47811;BME280;33575;52.600;7.318;2022-10-17T07:43:15;101560.73;;;15.83;100.00
47811;BME280;33575;52.600;7.318;2022-10-17T07:45:46;101566.50;;;15.84;100.00
47811;BME280;33575;52.600;7.318;2022-10-17T07:48:17;101560.50;;;15.89;100.00
47811;BME280;33575;52.600;7.318;2022-10-17T07:50:47;101563.63;;;15.92;100.00
47811;BME280;33575;52.600;7.318;2022-10-17T07:53:16;101566.29;;;15.93;100.00
47811;BME280;33575;52.600;7.318;2022-10-17T07:55:46;101566.04;;;16.02;100.00
47811;BME280;33575;52.600;7.318;2022-10-17T07:58:17;101568.32;;;16.12;100.00
47811;BME280;33575;52.600;7.318;2022-10-17T08:00:47;101563.92;;;16.20;100.00
47811;BME280;33575;52.600;7.318;2022-10-17T08:03:17;101570.18;;;16.22;100.00
47811;BME280;33575;52.600;7.318;2022-10-17T08:05:47;101570.65;;;16.29;100.00
47811;BME280;33575;52.600;7.318;2022-10-17T08:08:18;101568.63;;;16.34;100.00
47811;BME280;33575;52.600;7.318;2022-10-17T08:10:48;101565.18;;;16.41;100.00
47811;BME280;33575;52.600;7.318;2022-10-17T08:13:18;101567.35;;;16.51;100.00
47811;BME280;33575;52.600;7.318;2022-10-17T08:15:49;101560.79;;;16.60;100.00
47811;BME280;33575;52.600;7.318;2022-10-17T08:18:19;101558.00;;;16.67;100.00
47811;BME280;33575;52.600;7.318;2022-10-17T08:20:49;101562.88;;;16.74;100.00
47811;BME280;33575;52.600;7.318;2022-10-17T08:23:20;101571.69;;;16.81;100.00
47811;BME280;33575;52.600;7.318;2022-10-17T08:25:50;101567.10;;;16.87;100.00
47811;BME280;33575;52.600;7.318;2022-10-17T08:28:20;101572.49;;;16.96;100.00
47811;BME280;33575;52.600;7.318;2022-10-17T08:30:51;101569.27;;;17.04;100.00
47811;BME280;33575;52.600;7.318;2022-10-17T08:33:21;101568.75;;;17.06;100.00
47811;BME280;33575;52.600;7.318;2022-10-17T08:35:51;101567.76;;;17.10;100.00
47811;BME280;33575;52.600;7.318;2022-10-17T08:38:27;101577.63;;;17.27;100.00
47811;BME280;33575;52.600;7.318;2022-10-17T08:40:54;101579.66;;;17.24;100.00
47811;BME280;33575;52.600;7.318;2022-10-17T08:43:31;101576.93;;;17.38;100.00
47811;BME280;33575;52.600;7.318;2022-10-17T08:45:56;101573.63;;;17.43;100.00
47811;BME280;33575;52.600;7.318;2022-10-17T08:48:26;101578.09;;;17.55;100.00
47811;BME280;33575;52.600;7.318;2022-10-17T08:50:58;101580.32;;;17.57;100.00
47811;BME280;33575;52.600;7.318;2022-10-17T08:53:30;101581.47;;;17.63;100.00
47811;BME280;33575;52.600;7.318;2022-10-17T08:55:55;101587.30;;;17.68;99.89
47811;BME280;33575;52.600;7.318;2022-10-17T08:58:27;101594.64;;;17.74;99.84
47811;BME280;33575;52.600;7.318;2022-10-17T09:01:02;101591.87;;;17.69;99.83
47811;BME280;33575;52.600;7.318;2022-10-17T09:03:43;101592.83;;;17.76;99.58
47811;BME280;33575;52.600;7.318;2022-10-17T09:06:06;101595.12;;;17.69;99.31
47811;BME280;33575;52.600;7.318;2022-10-17T09:08:35;101598.20;;;17.71;99.19
47811;BME280;33575;52.600;7.318;2022-10-17T09:10:59;101600.09;;;17.78;98.79
47811;BME280;33575;52.600;7.318;2022-10-17T09:13:36;101608.68;;;17.86;98.78
47811;BME280;33575;52.600;7.318;2022-10-17T09:16:07;101605.07;;;17.72;98.96
47811;BME280;33575;52.600;7.318;2022-10-17T09:18:30;101601.63;;;17.76;98.99
47811;BME280;33575;52.600;7.318;2022-10-17T09:21:01;101602.52;;;17.83;98.78
47811;BME280;33575;52.600;7.318;2022-10-17T09:23:31;101616.53;;;17.83;98.92
47811;BME280;33575;52.600;7.318;2022-10-17T09:25:59;101623.95;;;17.90;98.87
47811;BME280;33575;52.600;7.318;2022-10-17T09:28:31;101632.36;;;17.91;99.09
47811;BME280;33575;52.600;7.318;2022-10-17T09:31:01;101653.58;;;17.99;99.16
47811;BME280;33575;52.600;7.318;2022-10-17T09:33:39;101670.22;;;18.00;98.58
47811;BME280;33575;52.600;7.318;2022-10-17T09:36:02;101666.82;;;18.09;98.43
47811;BME280;33575;52.600;7.318;2022-10-17T09:38:37;101667.88;;;18.07;99.17
47811;BME280;33575;52.600;7.318;2022-10-17T09:41:01;101668.40;;;18.22;98.23
47811;BME280;33575;52.600;7.318;2022-10-17T09:43:31;101665.54;;;18.19;97.80
47811;BME280;33575;52.600;7.318;2022-10-17T09:46:05;101669.18;;;18.30;97.32
47811;BME280;33575;52.600;7.318;2022-10-17T09:48:37;101665.69;;;18.34;97.43
47811;BME280;33575;52.600;7.318;2022-10-17T09:51:08;101668.33;;;18.31;97.54
47811;BME280;33575;52.600;7.318;2022-10-17T09:53:35;101666.23;;;18.31;96.46
47811;BME280;33575;52.600;7.318;2022-10-17T09:56:07;101668.23;;;18.04;96.53
47811;BME280;33575;52.600;7.318;2022-10-17T09:58:39;101675.96;;;18.20;96.72
47811;BME280;33575;52.600;7.318;2022-10-17T10:03:34;101685.39;;;18.16;97.80
47811;BME280;33575;52.600;7.318;2022-10-17T10:06:12;101710.54;;;18.22;98.14
47811;BME280;33575;52.600;7.318;2022-10-17T10:08:47;101734.63;;;18.09;99.26
47811;BME280;33575;52.600;7.318;2022-10-17T10:11:07;101741.81;;;18.08;99.29
47811;BME280;33575;52.600;7.318;2022-10-17T10:13:36;101749.90;;;17.96;99.99
47811;BME280;33575;52.600;7.318;2022-10-17T10:16:13;101754.87;;;17.95;99.95
47811;BME280;33575;52.600;7.318;2022-10-17T10:18:36;101753.68;;;17.97;100.00
47811;BME280;33575;52.600;7.318;2022-10-17T10:21:13;101729.89;;;17.91;100.00
47811;BME280;33575;52.600;7.318;2022-10-17T10:23:38;101722.42;;;17.85;100.00
47811;BME280;33575;52.600;7.318;2022-10-17T10:26:21;101737.02;;;17.77;100.00
47811;BME280;33575;52.600;7.318;2022-10-17T10:28:51;101716.15;;;17.70;100.00
47811;BME280;33575;52.600;7.318;2022-10-17T10:31:08;101705.25;;;17.64;100.00
47811;BME280;33575;52.600;7.318;2022-10-17T10:33:42;101728.77;;;17.72;100.00
47811;BME280;33575;52.600;7.318;2022-10-17T10:36:09;101730.39;;;17.78;100.00
47811;BME280;33575;52.600;7.318;2022-10-17T10:38:40;101741.36;;;17.88;100.00
47811;BME280;33575;52.600;7.318;2022-10-17T10:41:10;101751.50;;;17.92;100.00
47811;BME280;33575;52.600;7.318;2022-10-17T10:43:42;101756.36;;;17.94;100.00
47811;BME280;33575;52.600;7.318;2022-10-17T10:46:16;101758.71;;;17.97;100.00
47811;BME280;33575;52.600;7.318;2022-10-17T10:48:49;101763.06;;;18.01;100.00
47811;BME280;33575;52.600;7.318;2022-10-17T10:51:15;101774.82;;;18.11;100.00
47811;BME280;33575;52.600;7.318;2022-10-17T10:53:45;101797.28;;;18.16;100.00
47811;BME280;33575;52.600;7.318;2022-10-17T10:56:16;101823.92;;;18.10;100.00
47811;BME280;33575;52.600;7.318;2022-10-17T10:58:51;101868.99;;;18.07;100.00
47811;BME280;33575;52.600;7.318;2022-10-17T11:01:18;101850.10;;;17.98;100.00
47811;BME280;33575;52.600;7.318;2022-10-17T11:03:53;101864.94;;;17.99;100.00
47811;BME280;33575;52.600;7.318;2022-10-17T11:06:18;101850.71;;;17.89;100.00
47811;BME280;33575;52.600;7.318;2022-10-17T11:08:48;101838.29;;;17.79;100.00
47811;BME280;33575;52.600;7.318;2022-10-17T11:11:16;101812.78;;;17.69;100.00
47811;BME280;33575;52.600;7.318;2022-10-17T11:13:48;101791.53;;;17.76;100.00
47811;BME280;33575;52.600;7.318;2022-10-17T11:16:23;101783.95;;;17.83;100.00
47811;BME280;33575;52.600;7.318;2022-10-17T11:18:47;101753.41;;;17.89;100.00
47811;BME280;33575;52.600;7.318;2022-10-17T11:21:18;101742.40;;;17.97;100.00
47811;BME280;33575;52.600;7.318;2022-10-17T11:23:47;101739.27;;;18.08;100.00
47811;BME280;33575;52.600;7.318;2022-10-17T11:26:25;101739.62;;;18.17;100.00
47811;BME280;33575;52.600;7.318;2022-10-17T11:28:57;101777.70;;;18.21;100.00
47811;BME280;33575;52.600;7.318;2022-10-17T11:31:29;101783.45;;;18.28;100.00
47811;BME280;33575;52.600;7.318;2022-10-17T11:33:53;101780.06;;;18.35;100.00
47811;BME280;33575;52.600;7.318;2022-10-17T11:36:23;101777.64;;;18.38;100.00
47811;BME280;33575;52.600;7.318;2022-10-17T11:38:59;101784.78;;;18.42;99.76
47811;BME280;33575;52.600;7.318;2022-10-17T11:41:36;101787.52;;;18.46;99.73
47811;BME280;33575;52.600;7.318;2022-10-17T11:44:04;101776.15;;;18.48;99.77
47811;BME280;33575;52.600;7.318;2022-10-17T11:46:29;101771.53;;;18.48;99.57
47811;BME280;33575;52.600;7.318;2022-10-17T11:49:10;101784.41;;;18.48;99.37
47811;BME280;33575;52.600;7.318;2022-10-17T11:51:41;101772.86;;;18.42;99.60
47811;BME280;33575;52.600;7.318;2022-10-17T11:54:03;101761.46;;;18.41;99.62
47811;BME280;33575;52.600;7.318;2022-10-17T11:56:31;101777.75;;;18.38;99.67
47811;BME280;33575;52.600;7.318;2022-10-17T11:59:11;101791.07;;;18.42;99.33
47811;BME280;33575;52.600;7.318;2022-10-17T12:01:36;101799.86;;;18.43;98.72
47811;BME280;33575;52.600;7.318;2022-10-17T12:04:06;101814.95;;;18.32;97.60
47811;BME280;33575;52.600;7.318;2022-10-17T12:06:47;101830.00;;;18.21;97.75
47811;BME280;33575;52.600;7.318;2022-10-17T12:09:01;101827.25;;;18.13;97.26
47811;BME280;33575;52.600;7.318;2022-10-17T12:11:35;101824.55;;;17.88;98.15
47811;BME280;33575;52.600;7.318;2022-10-17T12:13:57;101827.15;;;17.80;98.93
47811;BME280;33575;52.600;7.318;2022-10-17T12:23:55;101834.03;;;17.81;100.00
47811;BME280;33575;52.600;7.318;2022-10-17T12:26:27;101837.64;;;17.82;100.00
47811;BME280;33575;52.600;7.318;2022-10-17T12:29:00;101839.97;;;17.68;99.47
47811;BME280;33575;52.600;7.318;2022-10-17T12:31:26;101838.80;;;17.69;100.00
47811;BME280;33575;52.600;7.318;2022-10-17T12:33:57;101827.39;;;17.68;100.00
47811;BME280;33575;52.600;7.318;2022-10-17T12:43:56;101831.39;;;17.78;100.00
47811;BME280;33575;52.600;7.318;2022-10-17T12:49:00;101838.62;;;17.94;100.00
47811;BME280;33575;52.600;7.318;2022-10-17T12:54:10;101850.60;;;17.96;100.00
47811;BME280;33575;52.600;7.318;2022-10-17T12:56:35;101849.39;;;17.90;100.00
47811;BME280;33575;52.600;7.318;2022-10-17T12:58:59;101849.04;;;17.89;100.00
47811;BME280;33575;52.600;7.318;2022-10-17T13:01:31;101846.71;;;17.94;100.00
47811;BME280;33575;52.600;7.318;2022-10-17T13:04:05;101855.06;;;17.90;100.00
47811;BME280;33575;52.600;7.318;2022-10-17T13:06:32;101855.32;;;18.00;100.00
47811;BME280;33575;52.600;7.318;2022-10-17T13:09:22;101862.27;;;18.05;100.00
47811;BME280;33575;52.600;7.318;2022-10-17T13:11:34;101863.79;;;18.07;100.00
47811;BME280;33575;52.600;7.318;2022-10-17T13:14:08;101872.59;;;18.05;100.00
47811;BME280;33575;52.600;7.318;2022-10-17T13:16:33;101875.04;;;18.07;100.00
47811;BME280;33575;52.600;7.318;2022-10-17T13:19:10;101871.94;;;18.02;100.00
47811;BME280;33575;52.600;7.318;2022-10-17T13:21:32;101873.19;;;18.05;100.00
47811;BME280;33575;52.600;7.318;2022-10-17T13:26:43;101882.97;;;18.05;100.00
47811;BME280;33575;52.600;7.318;2022-10-17T13:29:05;101882.07;;;18.03;100.00
47811;BME280;33575;52.600;7.318;2022-10-17T13:31:36;101885.52;;;17.95;100.00
47811;BME280;33575;52.600;7.318;2022-10-17T13:34:14;101885.08;;;18.01;100.00